sensor_id;sensor_type;location;lat;lon;timestamp;temperature;humidity
21033;DHT22;10675;47.976;7.824;2022-08-01T00:02:10;22.10;68.80
21033;DHT22;10675;47.976;7.824;2022-08-01T00:04:35;22.10;68.10
21033;DHT22;10675;47.976;7.824;2022-08-01T00:07:01;22.10;68.50
21033;DHT22;10675;47.976;7.824;2022-08-01T00:09:27;22.20;67.90
21033;DHT22;10675;47.976;7.824;2022-08-01T00:11:52;22.10;68.60
21033;DHT22;10675;47.976;7.824;2022-08-01T00:14:18;22.10;69.80
21033;DHT22;10675;47.976;7.824;2022-08-01T00:16:43;22.00;69.80
21033;DHT22;10675;47.976;7.824;2022-08-01T00:19:09;21.90;70.10
21033;DHT22;10675;47.976;7.824;2022-08-01T00:21:34;22.00;70.20
21033;DHT22;10675;47.976;7.824;2022-08-01T00:24:00;21.90;69.80
21033;DHT22;10675;47.976;7.824;2022-08-01T00:26:25;21.90;70.30
21033;DHT22;10675;47.976;7.824;2022-08-01T00:28:51;22.00;70.10
21033;DHT22;10675;47.976;7.824;2022-08-01T00:31:17;21.90;70.50
21033;DHT22;10675;47.976;7.824;2022-08-01T00:33:42;21.90;70.70
21033;DHT22;10675;47.976;7.824;2022-08-01T00:36:08;21.70;71.60
21033;DHT22;10675;47.976;7.824;2022-08-01T00:38:33;21.60;72.30
21033;DHT22;10675;47.976;7.824;2022-08-01T00:40:59;21.60;72.60
21033;DHT22;10675;47.976;7.824;2022-08-01T00:43:24;21.40;72.90
21033;DHT22;10675;47.976;7.824;2022-08-01T00:45:50;21.30;73.20
21033;DHT22;10675;47.976;7.824;2022-08-01T00:48:16;21.30;73.30
21033;DHT22;10675;47.976;7.824;2022-08-01T00:50:41;21.30;73.40
21033;DHT22;10675;47.976;7.824;2022-08-01T00:53:07;21.30;74.00
21033;DHT22;10675;47.976;7.824;2022-08-01T00:55:33;21.30;74.40
21033;DHT22;10675;47.976;7.824;2022-08-01T00:57:59;21.20;74.50
21033;DHT22;10675;47.976;7.824;2022-08-01T01:00:26;21.10;75.30
21033;DHT22;10675;47.976;7.824;2022-08-01T01:02:52;21.00;75.40
21033;DHT22;10675;47.976;7.824;2022-08-01T01:05:17;20.90;76.00
21033;DHT22;10675;47.976;7.824;2022-08-01T01:10:40;20.70;76.30
21033;DHT22;10675;47.976;7.824;2022-08-01T01:13:32;20.80;76.30
21033;DHT22;10675;47.976;7.824;2022-08-01T01:16:05;20.80;76.50
21033;DHT22;10675;47.976;7.824;2022-08-01T01:18:39;20.80;76.00
21033;DHT22;10675;47.976;7.824;2022-08-01T01:32:03;20.90;77.50
21033;DHT22;10675;47.976;7.824;2022-08-01T01:34:33;20.80;77.40
21033;DHT22;10675;47.976;7.824;2022-08-01T01:37:01;20.80;78.10
21033;DHT22;10675;47.976;7.824;2022-08-01T01:39:28;20.80;77.10
21033;DHT22;10675;47.976;7.824;2022-08-01T01:41:55;20.80;78.70
21033;DHT22;10675;47.976;7.824;2022-08-01T01:44:23;20.70;78.50
21033;DHT22;10675;47.976;7.824;2022-08-01T01:46:51;20.60;78.80
21033;DHT22;10675;47.976;7.824;2022-08-01T01:49:21;20.60;79.70
21033;DHT22;10675;47.976;7.824;2022-08-01T01:51:50;20.60;80.00
21033;DHT22;10675;47.976;7.824;2022-08-01T01:54:16;20.50;80.50
21033;DHT22;10675;47.976;7.824;2022-08-01T01:56:42;20.30;80.90
21033;DHT22;10675;47.976;7.824;2022-08-01T01:59:24;20.30;81.90
21033;DHT22;10675;47.976;7.824;2022-08-01T02:01:52;20.20;82.00
21033;DHT22;10675;47.976;7.824;2022-08-01T02:04:20;20.20;82.20
21033;DHT22;10675;47.976;7.824;2022-08-01T02:06:47;20.10;82.60
21033;DHT22;10675;47.976;7.824;2022-08-01T02:09:16;20.20;82.50
21033;DHT22;10675;47.976;7.824;2022-08-01T02:11:44;20.10;83.00
21033;DHT22;10675;47.976;7.824;2022-08-01T02:14:11;20.10;83.50
21033;DHT22;10675;47.976;7.824;2022-08-01T02:16:40;20.10;83.70
21033;DHT22;10675;47.976;7.824;2022-08-01T02:19:06;20.10;83.30
21033;DHT22;10675;47.976;7.824;2022-08-01T02:21:38;20.10;83.30
21033;DHT22;10675;47.976;7.824;2022-08-01T02:24:12;20.10;84.10
21033;DHT22;10675;47.976;7.824;2022-08-01T02:26:43;20.00;84.10
21033;DHT22;10675;47.976;7.824;2022-08-01T02:29:10;20.00;85.00
21033;DHT22;10675;47.976;7.824;2022-08-01T02:31:39;20.00;85.10
21033;DHT22;10675;47.976;7.824;2022-08-01T02:34:09;19.90;85.40
21033;DHT22;10675;47.976;7.824;2022-08-01T02:36:36;19.90;85.80
21033;DHT22;10675;47.976;7.824;2022-08-01T02:39:07;19.90;86.20
21033;DHT22;10675;47.976;7.824;2022-08-01T02:41:38;20.00;86.60
21033;DHT22;10675;47.976;7.824;2022-08-01T02:44:05;20.00;87.00
21033;DHT22;10675;47.976;7.824;2022-08-01T02:46:41;19.90;88.10
21033;DHT22;10675;47.976;7.824;2022-08-01T02:49:09;19.80;87.70
21033;DHT22;10675;47.976;7.824;2022-08-01T02:51:36;19.80;88.10
21033;DHT22;10675;47.976;7.824;2022-08-01T02:54:05;19.70;88.40
21033;DHT22;10675;47.976;7.824;2022-08-01T02:56:31;19.70;89.20
21033;DHT22;10675;47.976;7.824;2022-08-01T02:59:06;19.50;90.00
21033;DHT22;10675;47.976;7.824;2022-08-01T03:01:34;19.50;90.00
21033;DHT22;10675;47.976;7.824;2022-08-01T03:04:02;19.50;90.30
21033;DHT22;10675;47.976;7.824;2022-08-01T03:06:29;19.50;90.40
21033;DHT22;10675;47.976;7.824;2022-08-01T03:08:55;19.50;90.30
21033;DHT22;10675;47.976;7.824;2022-08-01T03:11:24;19.50;90.40
21033;DHT22;10675;47.976;7.824;2022-08-01T03:13:52;19.60;90.00
21033;DHT22;10675;47.976;7.824;2022-08-01T03:16:19;19.60;90.10
21033;DHT22;10675;47.976;7.824;2022-08-01T03:18:47;19.60;90.30
21033;DHT22;10675;47.976;7.824;2022-08-01T03:21:14;19.60;90.70
21033;DHT22;10675;47.976;7.824;2022-08-01T03:23:41;19.50;91.00
21033;DHT22;10675;47.976;7.824;2022-08-01T03:26:08;19.50;91.10
21033;DHT22;10675;47.976;7.824;2022-08-01T03:28:35;19.40;91.10
21033;DHT22;10675;47.976;7.824;2022-08-01T03:31:02;19.30;91.10
21033;DHT22;10675;47.976;7.824;2022-08-01T03:33:28;19.30;91.40
21033;DHT22;10675;47.976;7.824;2022-08-01T03:35:55;19.50;91.30
21033;DHT22;10675;47.976;7.824;2022-08-01T03:38:24;19.40;91.80
21033;DHT22;10675;47.976;7.824;2022-08-01T03:40:56;19.40;91.80
21033;DHT22;10675;47.976;7.824;2022-08-01T03:43:32;19.40;92.20
21033;DHT22;10675;47.976;7.824;2022-08-01T03:46:06;19.30;92.40
21033;DHT22;10675;47.976;7.824;2022-08-01T03:48:36;19.20;92.40
21033;DHT22;10675;47.976;7.824;2022-08-01T03:51:03;19.30;92.50
21033;DHT22;10675;47.976;7.824;2022-08-01T03:53:30;19.30;91.80
21033;DHT22;10675;47.976;7.824;2022-08-01T03:56:00;19.30;92.10
21033;DHT22;10675;47.976;7.824;2022-08-01T03:58:28;19.30;92.40
21033;DHT22;10675;47.976;7.824;2022-08-01T04:00:55;19.40;92.50
21033;DHT22;10675;47.976;7.824;2022-08-01T04:03:20;19.30;92.80
21033;DHT22;10675;47.976;7.824;2022-08-01T04:05:46;19.30;93.00
21033;DHT22;10675;47.976;7.824;2022-08-01T04:08:12;19.10;93.50
21033;DHT22;10675;47.976;7.824;2022-08-01T04:10:37;19.20;93.70
21033;DHT22;10675;47.976;7.824;2022-08-01T04:13:03;19.20;93.80
21033;DHT22;10675;47.976;7.824;2022-08-01T04:15:28;19.30;93.40
21033;DHT22;10675;47.976;7.824;2022-08-01T04:17:54;19.40;93.10
21033;DHT22;10675;47.976;7.824;2022-08-01T04:20:20;19.50;92.80
21033;DHT22;10675;47.976;7.824;2022-08-01T04:22:46;19.50;92.50
21033;DHT22;10675;47.976;7.824;2022-08-01T04:25:22;19.60;91.90
21033;DHT22;10675;47.976;7.824;2022-08-01T04:27:50;19.70;91.50
21033;DHT22;10675;47.976;7.824;2022-08-01T04:30:28;19.70;91.50
21033;DHT22;10675;47.976;7.824;2022-08-01T04:32:55;19.70;91.20
21033;DHT22;10675;47.976;7.824;2022-08-01T04:35:24;19.70;91.30
21033;DHT22;10675;47.976;7.824;2022-08-01T04:37:50;19.80;91.10
21033;DHT22;10675;47.976;7.824;2022-08-01T04:40:17;19.90;90.90
21033;DHT22;10675;47.976;7.824;2022-08-01T04:42:43;19.80;90.80
21033;DHT22;10675;47.976;7.824;2022-08-01T04:45:09;19.80;91.00
21033;DHT22;10675;47.976;7.824;2022-08-01T04:47:36;19.80;91.20
21033;DHT22;10675;47.976;7.824;2022-08-01T04:50:05;19.90;91.40
21033;DHT22;10675;47.976;7.824;2022-08-01T04:52:36;19.90;90.80
21033;DHT22;10675;47.976;7.824;2022-08-01T04:55:04;19.90;90.90
21033;DHT22;10675;47.976;7.824;2022-08-01T04:57:33;20.00;90.70
21033;DHT22;10675;47.976;7.824;2022-08-01T04:59:59;20.10;91.40
21033;DHT22;10675;47.976;7.824;2022-08-01T05:02:27;20.10;92.00
21033;DHT22;10675;47.976;7.824;2022-08-01T05:04:54;20.10;92.40
21033;DHT22;10675;47.976;7.824;2022-08-01T05:07:23;20.10;92.40
21033;DHT22;10675;47.976;7.824;2022-08-01T05:09:48;20.20;92.50
21033;DHT22;10675;47.976;7.824;2022-08-01T05:12:14;20.20;92.60
21033;DHT22;10675;47.976;7.824;2022-08-01T05:14:40;20.30;92.50
21033;DHT22;10675;47.976;7.824;2022-08-01T05:17:07;20.30;92.40
21033;DHT22;10675;47.976;7.824;2022-08-01T05:19:34;20.30;92.50
21033;DHT22;10675;47.976;7.824;2022-08-01T05:22:00;20.40;92.60
21033;DHT22;10675;47.976;7.824;2022-08-01T05:24:33;20.30;92.60
21033;DHT22;10675;47.976;7.824;2022-08-01T05:26:59;20.50;92.20
21033;DHT22;10675;47.976;7.824;2022-08-01T05:29:25;20.70;92.10
21033;DHT22;10675;47.976;7.824;2022-08-01T05:31:51;20.70;91.90
21033;DHT22;10675;47.976;7.824;2022-08-01T05:34:17;20.70;92.00
21033;DHT22;10675;47.976;7.824;2022-08-01T05:36:43;20.70;92.10
21033;DHT22;10675;47.976;7.824;2022-08-01T05:39:08;20.60;92.30
21033;DHT22;10675;47.976;7.824;2022-08-01T05:41:35;20.60;92.50
21033;DHT22;10675;47.976;7.824;2022-08-01T05:44:01;20.70;92.10
21033;DHT22;10675;47.976;7.824;2022-08-01T05:46:27;20.80;91.80
21033;DHT22;10675;47.976;7.824;2022-08-01T05:48:52;21.00;90.70
21033;DHT22;10675;47.976;7.824;2022-08-01T05:51:18;21.10;90.00
21033;DHT22;10675;47.976;7.824;2022-08-01T05:53:44;21.20;89.60
21033;DHT22;10675;47.976;7.824;2022-08-01T05:56:09;21.10;89.10
21033;DHT22;10675;47.976;7.824;2022-08-01T05:58:35;21.10;88.90
21033;DHT22;10675;47.976;7.824;2022-08-01T06:01:00;21.00;88.80
21033;DHT22;10675;47.976;7.824;2022-08-01T06:03:26;21.10;88.80
21033;DHT22;10675;47.976;7.824;2022-08-01T06:05:56;21.20;88.60
21033;DHT22;10675;47.976;7.824;2022-08-01T06:08:22;21.20;87.60
21033;DHT22;10675;47.976;7.824;2022-08-01T06:10:47;21.30;86.90
21033;DHT22;10675;47.976;7.824;2022-08-01T06:13:13;21.60;85.80
21033;DHT22;10675;47.976;7.824;2022-08-01T06:15:38;21.60;85.90
21033;DHT22;10675;47.976;7.824;2022-08-01T06:18:04;21.90;85.50
21033;DHT22;10675;47.976;7.824;2022-08-01T06:20:30;21.90;84.80
21033;DHT22;10675;47.976;7.824;2022-08-01T06:22:56;21.90;83.50
21033;DHT22;10675;47.976;7.824;2022-08-01T06:25:21;22.00;83.70
21033;DHT22;10675;47.976;7.824;2022-08-01T06:27:48;22.40;81.60
21033;DHT22;10675;47.976;7.824;2022-08-01T06:30:14;22.60;80.80
21033;DHT22;10675;47.976;7.824;2022-08-01T06:32:40;22.60;81.20
21033;DHT22;10675;47.976;7.824;2022-08-01T06:35:06;22.60;81.20
21033;DHT22;10675;47.976;7.824;2022-08-01T06:37:32;22.70;80.10
21033;DHT22;10675;47.976;7.824;2022-08-01T06:40:05;23.00;79.40
21033;DHT22;10675;47.976;7.824;2022-08-01T06:42:31;23.10;78.80
21033;DHT22;10675;47.976;7.824;2022-08-01T06:45:10;23.10;78.80
21033;DHT22;10675;47.976;7.824;2022-08-01T06:47:37;23.20;78.50
21033;DHT22;10675;47.976;7.824;2022-08-01T06:50:04;23.20;78.50
21033;DHT22;10675;47.976;7.824;2022-08-01T06:52:29;23.10;78.80
21033;DHT22;10675;47.976;7.824;2022-08-01T06:54:55;23.30;77.40
21033;DHT22;10675;47.976;7.824;2022-08-01T06:57:21;23.20;76.60
21033;DHT22;10675;47.976;7.824;2022-08-01T06:59:46;23.30;76.40
21033;DHT22;10675;47.976;7.824;2022-08-01T07:02:12;23.50;76.80
21033;DHT22;10675;47.976;7.824;2022-08-01T07:04:37;23.70;76.30
21033;DHT22;10675;47.976;7.824;2022-08-01T07:07:03;24.00;75.00
21033;DHT22;10675;47.976;7.824;2022-08-01T07:09:29;23.80;74.70
21033;DHT22;10675;47.976;7.824;2022-08-01T07:11:54;23.80;74.90
21033;DHT22;10675;47.976;7.824;2022-08-01T07:14:21;23.90;75.60
21033;DHT22;10675;47.976;7.824;2022-08-01T07:16:46;24.00;74.40
21033;DHT22;10675;47.976;7.824;2022-08-01T07:19:12;24.20;74.00
21033;DHT22;10675;47.976;7.824;2022-08-01T07:21:39;24.10;73.50
21033;DHT22;10675;47.976;7.824;2022-08-01T07:24:06;24.40;73.00
21033;DHT22;10675;47.976;7.824;2022-08-01T07:26:31;24.80;72.00
21033;DHT22;10675;47.976;7.824;2022-08-01T07:28:57;24.40;71.80
21033;DHT22;10675;47.976;7.824;2022-08-01T07:31:23;24.60;72.20
21033;DHT22;10675;47.976;7.824;2022-08-01T07:33:49;24.50;71.20
21033;DHT22;10675;47.976;7.824;2022-08-01T07:36:18;24.60;70.60
21033;DHT22;10675;47.976;7.824;2022-08-01T07:38:44;24.70;70.40
21033;DHT22;10675;47.976;7.824;2022-08-01T07:41:10;24.70;70.50
21033;DHT22;10675;47.976;7.824;2022-08-01T07:43:36;24.80;70.30
21033;DHT22;10675;47.976;7.824;2022-08-01T07:46:03;25.00;70.10
21033;DHT22;10675;47.976;7.824;2022-08-01T07:48:28;25.00;69.70
21033;DHT22;10675;47.976;7.824;2022-08-01T07:50:54;25.30;69.30
21033;DHT22;10675;47.976;7.824;2022-08-01T07:53:20;25.50;69.00
21033;DHT22;10675;47.976;7.824;2022-08-01T07:55:45;25.60;68.70
21033;DHT22;10675;47.976;7.824;2022-08-01T07:58:11;25.60;68.50
21033;DHT22;10675;47.976;7.824;2022-08-01T08:00:36;25.60;68.00
21033;DHT22;10675;47.976;7.824;2022-08-01T08:03:03;25.60;68.20
21033;DHT22;10675;47.976;7.824;2022-08-01T08:05:28;25.70;67.40
21033;DHT22;10675;47.976;7.824;2022-08-01T08:07:54;25.80;67.40
21033;DHT22;10675;47.976;7.824;2022-08-01T08:10:19;25.80;66.80
21033;DHT22;10675;47.976;7.824;2022-08-01T08:12:45;26.00;66.50
21033;DHT22;10675;47.976;7.824;2022-08-01T08:15:12;26.20;66.10
21033;DHT22;10675;47.976;7.824;2022-08-01T08:17:38;26.20;66.40
21033;DHT22;10675;47.976;7.824;2022-08-01T08:20:07;26.10;65.50
21033;DHT22;10675;47.976;7.824;2022-08-01T08:22:33;26.30;65.50
21033;DHT22;10675;47.976;7.824;2022-08-01T08:24:59;26.30;65.10
21033;DHT22;10675;47.976;7.824;2022-08-01T08:27:25;26.40;64.80
21033;DHT22;10675;47.976;7.824;2022-08-01T08:29:51;26.40;64.60
21033;DHT22;10675;47.976;7.824;2022-08-01T08:32:17;26.60;64.30
21033;DHT22;10675;47.976;7.824;2022-08-01T08:34:42;26.40;63.10
21033;DHT22;10675;47.976;7.824;2022-08-01T08:37:08;26.70;63.70
21033;DHT22;10675;47.976;7.824;2022-08-01T08:39:34;26.80;63.20
21033;DHT22;10675;47.976;7.824;2022-08-01T08:42:00;26.90;63.10
21033;DHT22;10675;47.976;7.824;2022-08-01T08:44:27;27.00;63.20
21033;DHT22;10675;47.976;7.824;2022-08-01T08:46:53;27.00;62.40
21033;DHT22;10675;47.976;7.824;2022-08-01T08:49:24;27.30;61.70
21033;DHT22;10675;47.976;7.824;2022-08-01T08:51:51;27.10;61.80
21033;DHT22;10675;47.976;7.824;2022-08-01T08:54:22;27.10;62.20
21033;DHT22;10675;47.976;7.824;2022-08-01T08:56:50;27.20;62.10
21033;DHT22;10675;47.976;7.824;2022-08-01T08:59:16;27.20;61.70
21033;DHT22;10675;47.976;7.824;2022-08-01T09:01:42;27.30;63.10
21033;DHT22;10675;47.976;7.824;2022-08-01T09:04:09;27.30;61.70
21033;DHT22;10675;47.976;7.824;2022-08-01T09:06:35;27.40;61.40
21033;DHT22;10675;47.976;7.824;2022-08-01T09:09:00;27.40;60.40
21033;DHT22;10675;47.976;7.824;2022-08-01T09:11:26;27.60;60.20
21033;DHT22;10675;47.976;7.824;2022-08-01T09:16:27;27.40;59.50
21033;DHT22;10675;47.976;7.824;2022-08-01T09:18:53;27.50;59.00
21033;DHT22;10675;47.976;7.824;2022-08-01T09:21:20;27.60;59.50
21033;DHT22;10675;47.976;7.824;2022-08-01T09:23:54;27.70;59.20
21033;DHT22;10675;47.976;7.824;2022-08-01T09:26:34;27.80;58.50
21033;DHT22;10675;47.976;7.824;2022-08-01T09:29:05;28.00;58.00
21033;DHT22;10675;47.976;7.824;2022-08-01T09:31:40;27.80;57.30
21033;DHT22;10675;47.976;7.824;2022-08-01T09:34:07;28.20;57.30
21033;DHT22;10675;47.976;7.824;2022-08-01T09:39:15;28.40;56.60
21033;DHT22;10675;47.976;7.824;2022-08-01T09:41:41;28.20;55.70
21033;DHT22;10675;47.976;7.824;2022-08-01T09:44:06;28.20;54.60
21033;DHT22;10675;47.976;7.824;2022-08-01T09:46:32;28.20;54.10
21033;DHT22;10675;47.976;7.824;2022-08-01T09:49:03;28.30;54.10
21033;DHT22;10675;47.976;7.824;2022-08-01T09:51:38;28.50;54.60
21033;DHT22;10675;47.976;7.824;2022-08-01T09:54:05;28.50;54.90
21033;DHT22;10675;47.976;7.824;2022-08-01T09:56:41;28.60;55.10
21033;DHT22;10675;47.976;7.824;2022-08-01T09:59:08;28.60;54.80
21033;DHT22;10675;47.976;7.824;2022-08-01T10:01:49;28.80;54.90
21033;DHT22;10675;47.976;7.824;2022-08-01T10:04:20;28.90;54.80
21033;DHT22;10675;47.976;7.824;2022-08-01T10:06:47;28.90;55.00
21033;DHT22;10675;47.976;7.824;2022-08-01T10:09:29;28.70;55.10
21033;DHT22;10675;47.976;7.824;2022-08-01T10:11:55;28.90;55.30
21033;DHT22;10675;47.976;7.824;2022-08-01T10:14:24;29.00;54.40
21033;DHT22;10675;47.976;7.824;2022-08-01T10:16:51;29.20;53.40
21033;DHT22;10675;47.976;7.824;2022-08-01T10:19:18;29.20;54.20
21033;DHT22;10675;47.976;7.824;2022-08-01T10:21:46;29.20;53.80
21033;DHT22;10675;47.976;7.824;2022-08-01T10:24:15;29.20;53.80
21033;DHT22;10675;47.976;7.824;2022-08-01T10:26:41;29.10;54.20
21033;DHT22;10675;47.976;7.824;2022-08-01T10:29:09;29.10;54.10
21033;DHT22;10675;47.976;7.824;2022-08-01T10:31:34;29.40;54.60
21033;DHT22;10675;47.976;7.824;2022-08-01T10:34:01;29.40;54.00
21033;DHT22;10675;47.976;7.824;2022-08-01T10:36:28;29.20;52.70
21033;DHT22;10675;47.976;7.824;2022-08-01T10:38:55;29.10;52.80
21033;DHT22;10675;47.976;7.824;2022-08-01T10:41:22;29.30;53.50
21033;DHT22;10675;47.976;7.824;2022-08-01T10:43:49;29.50;53.40
21033;DHT22;10675;47.976;7.824;2022-08-01T10:46:19;29.60;53.00
21033;DHT22;10675;47.976;7.824;2022-08-01T10:49:01;29.70;52.90
21033;DHT22;10675;47.976;7.824;2022-08-01T10:51:28;29.80;53.10
21033;DHT22;10675;47.976;7.824;2022-08-01T10:53:54;29.70;52.30
21033;DHT22;10675;47.976;7.824;2022-08-01T10:56:21;29.90;51.00
21033;DHT22;10675;47.976;7.824;2022-08-01T10:58:48;30.30;50.70
21033;DHT22;10675;47.976;7.824;2022-08-01T11:08:58;29.80;48.30
21033;DHT22;10675;47.976;7.824;2022-08-01T11:11:24;29.80;49.40
21033;DHT22;10675;47.976;7.824;2022-08-01T11:16:34;30.30;48.80
21033;DHT22;10675;47.976;7.824;2022-08-01T11:19:00;30.20;48.30
21033;DHT22;10675;47.976;7.824;2022-08-01T11:27:30;30.30;46.40
21033;DHT22;10675;47.976;7.824;2022-08-01T11:32:50;30.30;47.30
21033;DHT22;10675;47.976;7.824;2022-08-01T11:35:16;30.40;47.70
21033;DHT22;10675;47.976;7.824;2022-08-01T11:37:42;30.50;47.00
21033;DHT22;10675;47.976;7.824;2022-08-01T11:42:44;30.30;48.20
21033;DHT22;10675;47.976;7.824;2022-08-01T11:45:10;30.60;47.60
21033;DHT22;10675;47.976;7.824;2022-08-01T11:47:44;30.80;48.00
21033;DHT22;10675;47.976;7.824;2022-08-01T11:50:31;30.70;47.20
21033;DHT22;10675;47.976;7.824;2022-08-01T11:53:05;30.80;47.90
21033;DHT22;10675;47.976;7.824;2022-08-01T11:55:31;30.70;48.50
21033;DHT22;10675;47.976;7.824;2022-08-01T11:58:04;30.80;48.70
21033;DHT22;10675;47.976;7.824;2022-08-01T12:00:31;31.00;49.00
21033;DHT22;10675;47.976;7.824;2022-08-01T12:03:05;31.10;47.90
21033;DHT22;10675;47.976;7.824;2022-08-01T12:05:33;31.20;48.70
21033;DHT22;10675;47.976;7.824;2022-08-01T12:08:00;31.40;48.10
21033;DHT22;10675;47.976;7.824;2022-08-01T12:10:32;31.40;47.70
21033;DHT22;10675;47.976;7.824;2022-08-01T12:13:03;31.60;47.10
21033;DHT22;10675;47.976;7.824;2022-08-01T12:15:34;31.10;46.60
21033;DHT22;10675;47.976;7.824;2022-08-01T12:18:02;31.20;46.90
21033;DHT22;10675;47.976;7.824;2022-08-01T12:20:36;31.20;47.40
21033;DHT22;10675;47.976;7.824;2022-08-01T12:23:04;31.10;46.30
21033;DHT22;10675;47.976;7.824;2022-08-01T12:25:31;31.20;46.80
21033;DHT22;10675;47.976;7.824;2022-08-01T12:28:05;31.40;46.90
21033;DHT22;10675;47.976;7.824;2022-08-01T12:30:32;31.30;46.10
21033;DHT22;10675;47.976;7.824;2022-08-01T12:33:01;30.90;46.50
21033;DHT22;10675;47.976;7.824;2022-08-01T12:35:28;30.50;47.00
21033;DHT22;10675;47.976;7.824;2022-08-01T12:37:59;30.30;48.00
21033;DHT22;10675;47.976;7.824;2022-08-01T12:40:34;30.20;48.30
21033;DHT22;10675;47.976;7.824;2022-08-01T12:43:06;30.60;47.50
21033;DHT22;10675;47.976;7.824;2022-08-01T12:45:41;31.20;47.40
21033;DHT22;10675;47.976;7.824;2022-08-01T12:48:17;31.50;46.80
21033;DHT22;10675;47.976;7.824;2022-08-01T12:50:50;31.70;45.80
21033;DHT22;10675;47.976;7.824;2022-08-01T12:53:17;31.60;44.80
21033;DHT22;10675;47.976;7.824;2022-08-01T12:55:55;31.10;47.00
21033;DHT22;10675;47.976;7.824;2022-08-01T12:58:21;30.80;47.00
21033;DHT22;10675;47.976;7.824;2022-08-01T13:00:49;30.70;47.80
21033;DHT22;10675;47.976;7.824;2022-08-01T13:03:17;30.70;47.50
21033;DHT22;10675;47.976;7.824;2022-08-01T13:08:16;31.50;46.20
21033;DHT22;10675;47.976;7.824;2022-08-01T13:10:43;31.30;46.60
21033;DHT22;10675;47.976;7.824;2022-08-01T13:13:09;31.50;46.90
21033;DHT22;10675;47.976;7.824;2022-08-01T13:15:37;32.00;45.50
21033;DHT22;10675;47.976;7.824;2022-08-01T13:18:37;32.90;45.70
21033;DHT22;10675;47.976;7.824;2022-08-01T13:21:19;33.40;43.10
21033;DHT22;10675;47.976;7.824;2022-08-01T13:24:05;33.70;42.30
21033;DHT22;10675;47.976;7.824;2022-08-01T13:26:50;33.00;43.60
21033;DHT22;10675;47.976;7.824;2022-08-01T13:29:18;32.00;44.30
21033;DHT22;10675;47.976;7.824;2022-08-01T13:31:44;31.40;45.50
21033;DHT22;10675;47.976;7.824;2022-08-01T13:34:10;31.20;46.50
21033;DHT22;10675;47.976;7.824;2022-08-01T13:36:37;31.60;46.10
21033;DHT22;10675;47.976;7.824;2022-08-01T13:39:03;32.60;44.60
21033;DHT22;10675;47.976;7.824;2022-08-01T13:41:48;33.30;43.20
21033;DHT22;10675;47.976;7.824;2022-08-01T13:44:14;33.60;41.90
21033;DHT22;10675;47.976;7.824;2022-08-01T13:46:41;33.40;41.30
21033;DHT22;10675;47.976;7.824;2022-08-01T13:49:09;33.90;41.10
21033;DHT22;10675;47.976;7.824;2022-08-01T13:51:36;33.00;41.70
21033;DHT22;10675;47.976;7.824;2022-08-01T13:54:02;32.60;42.00
21033;DHT22;10675;47.976;7.824;2022-08-01T13:56:28;32.50;43.20
21033;DHT22;10675;47.976;7.824;2022-08-01T13:58:54;32.20;43.40
21033;DHT22;10675;47.976;7.824;2022-08-01T14:01:21;32.40;44.30
21033;DHT22;10675;47.976;7.824;2022-08-01T14:03:47;32.30;44.80
21033;DHT22;10675;47.976;7.824;2022-08-01T14:06:13;32.40;45.50
21033;DHT22;10675;47.976;7.824;2022-08-01T14:08:41;32.00;46.40
21033;DHT22;10675;47.976;7.824;2022-08-01T14:11:07;31.30;47.10
21033;DHT22;10675;47.976;7.824;2022-08-01T14:13:32;31.50;47.50
21033;DHT22;10675;47.976;7.824;2022-08-01T14:15:58;31.90;46.40
21033;DHT22;10675;47.976;7.824;2022-08-01T14:18:25;31.90;46.40
21033;DHT22;10675;47.976;7.824;2022-08-01T14:20:51;31.90;46.60
21033;DHT22;10675;47.976;7.824;2022-08-01T14:23:16;31.80;47.20
21033;DHT22;10675;47.976;7.824;2022-08-01T14:25:42;31.50;48.20
21033;DHT22;10675;47.976;7.824;2022-08-01T14:28:08;31.30;48.50
21033;DHT22;10675;47.976;7.824;2022-08-01T14:30:34;31.10;49.00
21033;DHT22;10675;47.976;7.824;2022-08-01T14:33:00;30.70;49.50
21033;DHT22;10675;47.976;7.824;2022-08-01T14:35:25;30.40;49.90
21033;DHT22;10675;47.976;7.824;2022-08-01T14:37:51;30.40;50.20
21033;DHT22;10675;47.976;7.824;2022-08-01T14:40:17;30.50;50.20
21033;DHT22;10675;47.976;7.824;2022-08-01T14:42:43;30.20;51.00
21033;DHT22;10675;47.976;7.824;2022-08-01T14:45:12;30.10;51.50
21033;DHT22;10675;47.976;7.824;2022-08-01T14:47:40;29.80;51.40
21033;DHT22;10675;47.976;7.824;2022-08-01T14:50:11;29.70;52.70
21033;DHT22;10675;47.976;7.824;2022-08-01T14:52:38;29.50;52.30
21033;DHT22;10675;47.976;7.824;2022-08-01T14:55:06;29.70;51.50
21033;DHT22;10675;47.976;7.824;2022-08-01T14:57:31;29.60;51.60
21033;DHT22;10675;47.976;7.824;2022-08-01T14:59:57;29.70;50.90
21033;DHT22;10675;47.976;7.824;2022-08-01T15:02:23;29.80;50.50
21033;DHT22;10675;47.976;7.824;2022-08-01T15:04:49;29.70;51.20
21033;DHT22;10675;47.976;7.824;2022-08-01T15:07:15;30.00;51.10
21033;DHT22;10675;47.976;7.824;2022-08-01T15:09:42;30.10;50.00
21033;DHT22;10675;47.976;7.824;2022-08-01T15:12:09;30.30;49.60
21033;DHT22;10675;47.976;7.824;2022-08-01T15:14:34;29.90;50.40
21033;DHT22;10675;47.976;7.824;2022-08-01T15:17:22;29.80;50.30
21033;DHT22;10675;47.976;7.824;2022-08-01T15:19:49;29.60;51.00
21033;DHT22;10675;47.976;7.824;2022-08-01T15:22:15;29.60;51.60
21033;DHT22;10675;47.976;7.824;2022-08-01T15:24:41;29.50;51.40
21033;DHT22;10675;47.976;7.824;2022-08-01T15:27:07;29.30;51.90
21033;DHT22;10675;47.976;7.824;2022-08-01T15:29:33;29.40;52.20
21033;DHT22;10675;47.976;7.824;2022-08-01T15:32:00;29.40;52.10
21033;DHT22;10675;47.976;7.824;2022-08-01T15:34:25;29.40;52.20
21033;DHT22;10675;47.976;7.824;2022-08-01T15:36:51;29.60;51.80
21033;DHT22;10675;47.976;7.824;2022-08-01T15:39:17;29.80;52.10
21033;DHT22;10675;47.976;7.824;2022-08-01T15:41:43;29.70;52.20
21033;DHT22;10675;47.976;7.824;2022-08-01T15:44:09;29.70;52.00
21033;DHT22;10675;47.976;7.824;2022-08-01T15:46:34;29.60;52.60
21033;DHT22;10675;47.976;7.824;2022-08-01T15:49:04;29.40;53.50
21033;DHT22;10675;47.976;7.824;2022-08-01T15:51:31;29.40;54.10
21033;DHT22;10675;47.976;7.824;2022-08-01T15:53:56;29.50;53.90
21033;DHT22;10675;47.976;7.824;2022-08-01T15:56:22;29.60;54.00
21033;DHT22;10675;47.976;7.824;2022-08-01T15:58:48;29.60;54.20
21033;DHT22;10675;47.976;7.824;2022-08-01T16:01:13;29.40;53.90
21033;DHT22;10675;47.976;7.824;2022-08-01T16:03:39;29.30;54.00
21033;DHT22;10675;47.976;7.824;2022-08-01T16:06:04;29.30;54.60
21033;DHT22;10675;47.976;7.824;2022-08-01T16:08:30;29.50;54.10
21033;DHT22;10675;47.976;7.824;2022-08-01T16:10:55;29.70;53.30
21033;DHT22;10675;47.976;7.824;2022-08-01T16:13:21;29.50;53.50
21033;DHT22;10675;47.976;7.824;2022-08-01T16:15:46;29.40;54.20
21033;DHT22;10675;47.976;7.824;2022-08-01T16:18:12;29.20;54.50